Eduardo Braga

Olheiro-Chefe - Cruzeiro
20 Ago 2028
Domingo
Processo

Personalidade

Adaptabilidade (20) Ambição (7) Controvérsia (12) Lealdade (9) Pressão (16) Profissionalismo (8) Espírito Esportivo (1) Temperamento (15)

Perfil

Estilo de Treinamento Democrático
Licença Nacional A
Determinação 8
Gestão de Pessoas 6
Motivação 14
Disciplina 14
Satisfação no Trabalho
100%
Fadiga
0%
Função Olheiro-Chefe
Salário 39.6K p/s
Contrato 14.03.2030

Desempenho

Comportamento Bom
Eficácia do Treinamento
39%
Desenvolvimento do Jogador
55%
Prevenção de Lesões
40%
Implementação Tática
30%

Eventos Recentes

Participou de uma reunião de recrutamento agora
Participou de uma reunião de recrutamento 7d atrás
Recomendou um alvo de transferência 7d atrás
Recomendou um alvo de transferência 7d atrás
Participou de uma reunião de recrutamento 14d atrás
Recomendou um alvo de transferência 14d atrás
Recomendou um alvo de transferência 14d atrás
Recomendou um alvo de transferência 21d atrás

Monitorando agora

363
Jogador Clube Status Habilidade Confiança Observado Última observação Último voto
Alex Scott Bournemouth Perdido 158 / 160 40% 7 19.06.2028 -
Archie Gray Southampton Ativo 154 / 156 40% 4 19.06.2028 -
Tiquinho Soares Corinthians Perdido 121 / 117 79% 1 12.06.2028 Aprovar
Vanderlan Bragantino Ativo 120 / 124 79% 1 07.06.2028 Aprovar
João Pedro Chelsea Ativo 154 / 158 40% 1 01.06.2028 -
Jacques Ekomié Wrexham Ativo 138 / 138 40% 4 31.05.2028 -
Matteo Ruggeri Middlesbrough Perdido 159 / 155 40% 9 31.05.2028 -
Max Bird Birmingham Ativo 138 / 138 40% 8 31.05.2028 -
Jeremy Sarmiento Middlesbrough Ativo 137 / 136 40% 1 31.05.2028 -
Manuel Ugarte Leicester City Ativo 150 / 147 40% 4 30.05.2028 -
Andrey Santos Bolton Wanderers Ativo 148 / 151 40% 4 29.05.2028 -
Mats Wieffer Brighton Ativo 154 / 150 40% 3 28.05.2028 -
Tino Livramento Newcastle United Ativo 161 / 163 40% 4 28.05.2028 -
Neco Williams Wrexham Ativo 148 / 147 40% 5 27.05.2028 -
Jarrad Branthwaite Everton Ativo 156 / 159 40% 2 27.05.2028 -
Sandro Tonali Tottenham Ativo 176 / 176 40% 8 25.05.2028 -
Joe Rodon Blackburn Rovers Ativo 143 / 145 40% 8 25.05.2028 -
Vitaly Janelt Derby County Ativo 146 / 145 40% 4 24.05.2028 -
Juanlu Bournemouth Perdido 159 / 157 40% 3 22.05.2028 -
Youri Tielemans Manchester United Perdido 162 / 165 40% 4 21.05.2028 -
Moisés Caicedo Chelsea Ativo 169 / 172 40% 8 20.05.2028 -
Nordi Mukiele Sunderland Ativo 147 / 146 40% 5 17.05.2028 -
Shea Charles Southampton Ativo 141 / 146 40% 4 17.05.2028 -
Kauê Furquim Boa Ativo 100 / 105 30% 1 / 1m 17.05.2028 -
Neto Sampaio Correa Ativo 87 / 87 30% 1 / 1m 17.05.2028 -
Pedro Porro Tottenham Ativo 161 / 152 40% 6 16.05.2028 -
Jan Paul van Hecke Tottenham Ativo 166 / 160 40% 4 16.05.2028 -
Callum Brittain Middlesbrough Ativo 140 / 136 40% 2 14.05.2028 -
Xaver Schlager Nottingham Forest Ativo 158 / 155 40% 1 14.05.2028 -
Jayden Bogle Leeds United Ativo 140 / 141 40% 6 13.05.2028 -
Óscar Mingueza Crystal Palace Ativo 151 / 154 40% 6 13.05.2028 -
Lamare Bogarde Reading Ativo 146 / 141 40% 1 13.05.2028 -
Adam Wharton Crystal Palace Perdido 154 / 161 40% 4 11.05.2028 -
Welington Southampton Ativo 131 / 137 40% 7 10.05.2028 -
Angeliño AS Roma Ativo 148 / 150 40% 5 07.05.2028 -
Aaron Hickey Brentford Ativo 151 / 148 40% 6 06.05.2028 -
Noussair Mazraoui Manchester United Perdido 164 / 155 40% 3 05.05.2028 -
Boubacar Kamara Aston Villa Ativo 166 / 166 40% 10 04.05.2028 -
Quinten Timber Crystal Palace Perdido 163 / 155 40% 3 03.05.2028 -
Maximiliano Araújo West Ham United Ativo 158 / 151 40% 4 02.05.2028 -
Ryan Sessegnon Fulham Ativo 151 / 152 40% 2 24.04.2028 -
Manu Koné AS Roma Ativo 177 / 167 40% 7 22.04.2028 -
Honest Ahanor Atalanta Ativo 134 / 141 40% 2 22.04.2028 -
Quilindschy Hartman Burnley Ativo 153 / 147 40% 3 18.04.2028 -
André Wolverhampton Ativo 148 / 154 40% 5 16.04.2028 -
Bafodé Diakité Plymouth Argyle Ativo 144 / 144 40% 3 16.04.2028 -
Amadou Onana Aston Villa Ativo 164 / 160 40% 3 09.04.2028 -
Max Johnston Derby County Ativo 139 / 136 40% 4 06.04.2028 -
Vitinho Botafogo Ativo 135 / 137 40% 9 02.04.2028 -
Jake O'Brien Everton Ativo 148 / 151 40% 2 31.03.2028 -
Vitão Flamengo Ativo 146 / 141 40% 2 31.03.2028 -
Marcos Antonio Sport Recife Ativo 138 / 142 40% 7 19.03.2028 -
Souffian El Karouani Al-Qadisiyah Ativo 135 / 139 40% 2 18.03.2028 -
Agustín Giay Palmeiras Ativo 137 / 138 40% 3 18.03.2028 -
Ousmane Diomande Nottingham Forest Ativo 165 / 162 40% 1 18.03.2028 -
Danilo Botafogo Ativo 142 / 144 40% 2 16.03.2028 -
Alexandro Bernabei Internacional Ativo 135 / 135 40% 6 15.03.2028 -
Caio Alexandre Bahia Ativo 134 / 135 40% 4 12.03.2028 -
Exequiel Palacios Lazio Ativo 162 / 161 40% 2 11.03.2028 -
Luciano Juba Bahia Ativo 133 / 135 40% 3 10.03.2028 -
Reece James Chelsea Ativo 172 / 175 40% 2 02.03.2028 -
Youssouf Fofana AC Milan Ativo 152 / 154 40% 1 29.02.2028 -
Arthur Flamengo Ativo 143 / 141 40% 3 26.02.2028 -
Lucas Piton Vasco da Gama Ativo 134 / 131 40% 3 25.02.2028 -
Jordan Beyer Burnley Ativo 146 / 139 40% 2 25.02.2028 -
Martín Zubimendi Arsenal Ativo 168 / 168 40% 1 16.01.2028 -
Rico Henry River Plate Ativo 145 / 141 40% 2 09.01.2028 -
Ryan Corinthians Perdido 119 / 117 79% 1 27.12.2027 Aprovar
Nicolas Jackson Aston Villa Ativo 158 / 149 40% 3 02.12.2027 -
Kai Havertz Arsenal Ativo 171 / 163 40% 1 02.12.2027 -
Gabriel Martinelli Arsenal Ativo 166 / 169 40% 1 02.12.2027 -
Josh Keeley Luton Town Ativo 138 / 135 40% 4 29.11.2027 -
Anthony Patterson Wrexham Ativo 139 / 136 40% 6 29.11.2027 -
Christos Mandas Lazio Ativo 146 / 150 40% 2 29.11.2027 -
Bernardo Lima Porto Ativo 108 / 119 40% 1 29.11.2027 -
Lucas Bergvall Tottenham Ativo 152 / 153 40% 1 29.11.2027 -
Evgeny Latyshonok Nizhniy Novgorod Ativo 123 / 128 40% 1 26.11.2027 -
Lukas Jensen Millwall Ativo 128 / 121 40% 1 26.11.2027 -
Caoimhin Kelleher Brentford Ativo 158 / 154 40% 15 25.11.2027 -
Patrick Schulte Columbus Crew Ativo 131 / 127 40% 6 24.11.2027 -
Alejandro Rodríguez Melgar Ativo 130 / 128 40% 5 24.11.2027 -
Roman Celentano FC Cincinnati Ativo 128 / 129 40% 5 23.11.2027 -
Aaron Ramsdale Southampton Ativo 154 / 153 40% 8 23.11.2027 -
Ezequiel Centurión River Plate Ativo 123 / 124 40% 8 22.11.2027 -
James Trafford Leeds United Ativo 148 / 148 40% 3 21.11.2027 -
Gabriel Brazão Santos Ativo 138 / 138 40% 8 21.11.2027 -
Dean Henderson Crystal Palace Ativo 159 / 156 40% 11 20.11.2027 -
Gabriel Batista Botafogo Ativo 131 / 129 40% 9 20.11.2027 -
Nathan Trott Cardiff City Ativo 126 / 133 40% 4 19.11.2027 -
Fran Vieites Walsall Ativo 121 / 129 40% 2 19.11.2027 -
Matt Freese Shakhtar Ativo 136 / 138 40% 1 19.11.2027 -
Radek Vítek Middlesbrough Ativo 149 / 145 40% 7 18.11.2027 -
Dayne St. Clair Inter Miami CF Ativo 131 / 126 40% 4 18.11.2027 -
Michele Di Gregorio Juventus Ativo 160 / 154 40% 5 17.11.2027 Observar
Carl Rushworth Aston Villa Ativo 151 / 147 40% 2 17.11.2027 -
Hugo Souza Corinthians Ativo 145 / 140 40% 10 16.11.2027 -
Nikita Haikin Bodo/Glimt Ativo 148 / 142 40% 8 15.11.2027 -
Leopold Wahlstedt Rosenborg Ativo 119 / 121 40% 1 15.11.2027 -
Oscar Steinke Brånby Hammarby Ativo 105 / 112 40% 1 14.11.2027 -
Matias Siltanen Malmo FF Ativo 120 / 128 40% 3 12.11.2027 -
Sol Brynn Bradford City Ativo 133 / 136 40% 3 12.11.2027 -
Kauã Moraes Flamengo Ativo 124 / 128 40% 4 12.11.2027 -
Carlos Coronel Fluminense Ativo 130 / 135 40% 9 11.11.2027 -
Lucas Arcanjo Vitória Ativo 134 / 128 40% 5 11.11.2027 -
Angus Gunn San Jose Earthquakes Ativo 128 / 125 40% 3 10.11.2027 -
Alex Meret Napoli Ativo 155 / 153 40% 7 06.11.2027 -
Souza Tottenham Ativo 131 / 136 40% 2 06.11.2027 -
Adrian Skogmar Malmo FF Ativo 115 / 123 40% 1 06.11.2027 -
Zack Steffen Colorado Rapids Ativo 128 / 129 40% 5 05.11.2027 -
Agustín Rossi Flamengo Ativo 140 / 139 40% 7 05.11.2027 -
Hugo Rojas Instituto Ativo 108 / 112 40% 1 03.11.2027 -
Martim Cunha Porto Ativo 111 / 116 40% 1 03.11.2027 -
Nahuel Leivas Montevideo City Torque Ativo 106 / 108 40% 2 02.11.2027 -
Azizbek To'lqinbekov Bunyodkor Ativo 98 / 105 40% 1 02.11.2027 -
Diego Enríquez Sporting Cristal Ativo 134 / 137 40% 6 29.10.2027 -
Lukáš Horníček Burnley Ativo 153 / 147 40% 4 28.10.2027 -
Carlos Miguel Palmeiras Ativo 140 / 138 40% 2 27.10.2027 -
Vladan Kovačević Norwich City Ativo 123 / 121 40% 4 26.10.2027 -
Mads Hermansen West Ham United Ativo 146 / 142 40% 8 23.10.2027 -
Diego Romero Universitario Ativo 123 / 125 40% 2 20.10.2027 -
Tomás Marchiori Zamalek Ativo 134 / 131 40% 2 19.10.2027 -
Caleb Yirenkyi Coventry City Ativo 145 / 150 40% 2 18.10.2027 -
Bart Verbruggen Liverpool Ativo 162 / 161 40% 1 16.10.2027 -
Gabriel Grando São Paulo Ativo 132 / 131 40% 4 14.10.2027 -
Giorgi Mamardashvili Liverpool Ativo 165 / 169 40% 2 09.10.2027 -
Robin Roefs Sunderland Ativo 155 / 147 40% 2 08.10.2027 -
Gonçalo Oliveira Benfica Ativo 111 / 128 40% 2 08.10.2027 -
Ľubomír Belko Viking Ativo 135 / 127 40% 5 05.10.2027 -
Léo Jardim Vasco da Gama Ativo 135 / 140 40% 6 03.10.2027 -
Renato Solís Sporting Cristal Ativo 126 / 127 40% 1 02.10.2027 -
Facundo Balatti Penarol Ativo 106 / 116 40% 1 02.10.2027 -
Christos Mouzakitis Hull City Ativo 138 / 137 40% 1 02.10.2027 -
Ayden Heaven Portsmouth Ativo 141 / 147 40% 2 01.10.2027 -
Josh Acheampong Everton Ativo 145 / 148 40% 3 29.09.2027 -
Eliás Montiel Borussia Dortmund Ativo 137 / 139 40% 1 28.09.2027 -
Mile Svilar AS Roma Ativo 171 / 166 40% 5 24.09.2027 -
Giovanni Leoni Lincoln City Ativo 140 / 149 40% 2 22.09.2027 -
Agustín Obregón River Plate Ativo 114 / 121 40% 1 22.09.2027 -
Miguel Figueiredo Benfica Ativo 115 / 128 40% 2 21.09.2027 -
Zion Suzuki Aston Villa Ativo 148 / 154 40% 4 19.09.2027 -
Victor Hernandez Santa Fe Ativo 120 / 122 40% 2 19.09.2027 -
Malick Yalcouyé Brighton Ativo 127 / 130 40% 1 19.09.2027 -
Cleiton Spartak Moscow Ativo 134 / 127 40% 2 16.09.2027 -
Kepa Arrizabalaga Arsenal Ativo 154 / 153 40% 1 16.09.2027 -
Luis Ingolotti Atlético Tucumán Ativo 131 / 128 40% 2 08.09.2027 -
José Cavadia Aguilas Doradas Ativo 106 / 117 40% 1 01.09.2027 -
Lautaro Morales Lanús Ativo 135 / 127 40% 2 29.08.2027 -
Luka Vušković Tottenham Ativo 148 / 155 40% 2 29.08.2027 -
Nazareno Roselli Defensa y Justicia Ativo 110 / 120 40% 1 27.08.2027 -
Álvaro Montero Al Ain Ativo 132 / 139 40% 1 24.08.2027 -
Mike Maignan AC Milan Ativo 162 / 171 40% 7 19.08.2027 -
Tommaso Cecotti Carpi Ativo 93 / 98 40% 1 19.08.2027 -
Jonathan Klinsmann Cesena Ativo 134 / 132 40% 5 15.08.2027 -
Elia Caprile Cagliari Ativo 153 / 155 40% 4 13.08.2027 -
Riccardo Gagno Vicenza Ativo 127 / 130 40% 2 12.08.2027 -
Álvaro Fernández Valencia Ativo 147 / 147 40% 1 10.08.2027 -
Maílson Al-Taawoun Ativo 134 / 137 40% 2 06.08.2027 -
Sascha Britschgi AC Milan Ativo 117 / 126 40% 1 06.08.2027 -
Riley Owen Stevenage Ativo 109 / 109 40% 1 06.08.2027 -
Mbekezeli Mbokazi Chicago Fire Ativo 130 / 130 40% 1 05.08.2027 -
Bruno Varela Al-Hazem Ativo 137 / 126 40% 4 03.08.2027 -
Oliver Dovin Coventry City Ativo 130 / 134 40% 2 29.07.2027 -
Alex Palmer Ipswich Town Ativo 130 / 130 40% 3 25.07.2027 -
Simone Scuffet Pisa Ativo 138 / 132 40% 3 22.07.2027 -
Denis Adamov Zenit Ativo 132 / 127 40% 1 12.07.2027 -
Wellerson Oeste Ativo 105 / 105 42% 1 / 1m 07.07.2027 -
Kahiser Lenis Ceará Ativo 120 / 120 30% 1 / 1m 07.07.2027 -
Ivor Pandur Hull City Ativo 124 / 124 40% 2 28.06.2027 -
Grégoire Coudert Burnley Ativo 133 / 136 40% 1 28.06.2027 -
Joseph Leclercq Tottenham Ativo 155 / 152 40% 3 22.06.2027 -
Balázs Tóth Blackburn Rovers Ativo 131 / 134 40% 2 22.06.2027 -
Andrey Santa Cruz Ativo 110 / 113 79% 1 14.06.2027 Aprovar
Christian Walton Ipswich Town Ativo 125 / 130 40% 1 09.06.2027 -
Sławomir Abramowicz Jagiellonia Ativo 130 / 123 40% 1 04.06.2027 -
Sorba Thomas Stoke City Ativo 133 / 127 40% 4 31.05.2027 -
Chemsdine Talbi Sunderland Ativo 144 / 144 40% 4 30.05.2027 -
Che Adams Torino Ativo 140 / 143 40% 3 29.05.2027 -
Morgan Rogers Chelsea Ativo 164 / 157 40% 1 29.05.2027 -
Jack McGlynn Stoke City Ativo 135 / 139 40% 1 28.05.2027 -
Fer López Wolverhampton Ativo 128 / 135 40% 1 28.05.2027 -
Samuel Edozie Southampton Ativo 135 / 132 40% 2 27.05.2027 -
Eddie Nketiah Crystal Palace Ativo 135 / 144 40% 5 26.05.2027 -
Joe Gelhardt Hull City Ativo 134 / 137 40% 4 26.05.2027 -
Kevin Fulham Ativo 144 / 151 40% 5 26.05.2027 -
Savinho Tottenham Ativo 159 / 152 40% 4 26.05.2027 -
Christian Pulisic AC Milan Ativo 168 / 160 40% 1 26.05.2027 -
Emanuel Emegha Chelsea Ativo 143 / 146 40% 1 26.05.2027 -
Toby Collyer West Bromwich Albion Ativo 126 / 137 40% 1 25.05.2027 -
Kwadwo Baah Watford Ativo 123 / 133 40% 1 25.05.2027 -
Jack Rudoni Coventry City Ativo 140 / 135 40% 3 23.05.2027 -
Manor Solomon West Ham United Ativo 143 / 142 40% 3 22.05.2027 -
Fábio Carvalho Brentford Ativo 136 / 138 40% 1 22.05.2027 -
Tyrese Campbell Sheffield United Ativo 131 / 126 40% 1 22.05.2027 -
Malick Fofana Sunderland Ativo 149 / 150 40% 3 21.05.2027 -
Jordan Pickford Everton Ativo 157 / 153 40% 2 19.05.2027 -
Yeremy Pino Crystal Palace Ativo 147 / 148 40% 3 19.05.2027 -
Łukasz Skorupski Bologna Ativo 150 / 140 40% 2 19.05.2027 -
Iliman N'Diaye Everton Ativo 167 / 155 40% 2 19.05.2027 -
Matheus Araújo Oeste Ativo 93 / 93 52% 1 / 1m 19.05.2027 -
Jonas Oeste Ativo 77 / 82 30% 1 / 1m 19.05.2027 -
Harry Wilson Leeds United Ativo 146 / 145 40% 4 18.05.2027 -
Mikkel Damsgaard Brentford Ativo 143 / 142 40% 1 17.05.2027 -
Rodrigo Gomes Wolverhampton Ativo 142 / 145 40% 1 15.05.2027 -
Jacob Ramsey Newcastle United Ativo 147 / 153 40% 2 11.05.2027 -
Mohamed-Ali Cho Hull City Ativo 139 / 138 40% 5 10.05.2027 -
James Maddison Tottenham Ativo 153 / 156 40% 4 10.05.2027 -
Jason Knight Bristol City Ativo 129 / 123 40% 1 07.05.2027 -
Xavi Simons Tottenham Ativo 157 / 156 40% 3 04.05.2027 -
Marcus Edwards Burnley Ativo 143 / 139 40% 2 03.05.2027 -
Bobby Clark Derby County Ativo 128 / 130 40% 1 02.05.2027 -
John McGinn Aston Villa Ativo 154 / 149 40% 3 01.05.2027 -
Will Mannion Charlton Athletic Ativo 113 / 108 40% 1 30.04.2027 -
Kevin Schade Chelsea Ativo 154 / 154 40% 1 29.04.2027 -
Yehor Yarmoliuk Brentford Ativo 143 / 145 40% 2 27.04.2027 -
Giacomo Raspadori Atalanta Ativo 152 / 140 40% 2 25.04.2027 -
Gianluca Scamacca Atalanta Ativo 156 / 148 40% 2 24.04.2027 -
Leroy Sané Galatasaray Ativo 152 / 154 40% 2 23.04.2027 -
Ilyas Ansah Hull City Ativo 128 / 133 40% 2 21.04.2027 -
Murphy Cooper Plymouth Argyle Ativo 114 / 110 40% 2 20.04.2027 -
Jak Alnwick Huddersfield Town Ativo 113 / 111 40% 1 18.04.2027 -
Joel Pereira Reading Ativo 114 / 116 40% 1 18.04.2027 -
Marcelo Allende Mamelodi Sundowns Ativo 130 / 126 40% 3 16.04.2027 -
Lewis Hall Newcastle United Ativo 147 / 148 40% 1 15.04.2027 -
Bongani Zungu Ajax Cape Town Ativo 129 / 130 40% 2 14.04.2027 -
Yoane Wissa Newcastle United Ativo 142 / 142 40% 2 13.04.2027 -
Ianis Hagi Alanyaspor Ativo 122 / 132 40% 1 13.04.2027 -
Jackson Muleka Konyaspor Ativo 133 / 126 40% 1 13.04.2027 -
Hidemasa Morita Hull City Ativo 138 / 145 40% 2 11.04.2027 -
Mohamadou Kanté Crawley Town Ativo 117 / 123 40% 1 11.04.2027 -
Zian Flemming Ipswich Town Ativo 129 / 135 40% 2 10.04.2027 -
Azor Matusiwa Ipswich Town Ativo 136 / 134 40% 1 10.04.2027 -
Sam Bell Bristol City Ativo 126 / 124 40% 1 08.04.2027 -
Václav Černý Besiktas Ativo 147 / 142 40% 1 07.04.2027 -
Samuel Justo Sporting CP Ativo 112 / 111 40% 1 07.04.2027 -
Antoni Milambo Brentford Ativo 143 / 147 40% 1 07.04.2027 -
Nicolò Zaniolo Udinese Ativo 140 / 136 40% 3 05.04.2027 -
Ilias Sebaoui Sint-Truiden Ativo 134 / 123 40% 1 03.04.2027 -
Callum O'Hare Sheffield United Ativo 129 / 126 40% 1 03.04.2027 -
Malcom Al Jazira Ativo 146 / 151 40% 1 29.03.2027 -
Finn Azaz Southampton Ativo 131 / 123 40% 3 28.03.2027 -
Diogo Gonçalves Konyaspor Ativo 128 / 124 40% 1 28.03.2027 -
Alexander Nübel Besiktas Ativo 153 / 141 40% 1 28.03.2027 -
Emiliano Martínez Chelsea Ativo 157 / 158 40% 1 28.03.2027 -
Sorriso Famalicao Ativo 126 / 134 40% 6 27.03.2027 -
Carlos Forbs Club Brugge Ativo 128 / 131 40% 7 27.03.2027 -
Mateja Stjepanović Moreirense Ativo 127 / 122 40% 1 26.03.2027 -
Ricardo Horta Braga Ativo 151 / 141 40% 11 25.03.2027 -
Pablo Rosario Porto Ativo 145 / 143 40% 5 24.03.2027 -
Pepê Porto Ativo 144 / 140 40% 10 24.03.2027 -
Fabijan Buntić Farense Ativo 114 / 108 40% 1 23.03.2027 -
Sébastien Cibois Portimonense Ativo 109 / 107 40% 1 23.03.2027 -
Juan Soriano Académico de Viseu Ativo 128 / 127 40% 1 23.03.2027 -
Hwang In-Beom Porto Ativo 148 / 144 40% 5 22.03.2027 -
Oli McBurnie Hull City Ativo 140 / 134 40% 2 22.03.2027 -
Nuno Santos Sporting CP Ativo 136 / 138 40% 7 21.03.2027 -
Geny Sporting CP Ativo 153 / 145 40% 1 21.03.2027 -
Tomáš Rigo Stoke City Ativo 136 / 131 40% 1 21.03.2027 -
Lovro Zvonarek Estrela da Amadora Ativo 126 / 128 40% 1 21.03.2027 -
Sikou Niakaté Braga Ativo 136 / 139 40% 2 19.03.2027 -
Gustaf Lagerbielke Braga Ativo 135 / 138 40% 1 19.03.2027 -
Brooke Norton-Cuffy Hull City Ativo 132 / 144 40% 1 19.03.2027 -
Alberto Costa Porto Ativo 146 / 139 40% 4 17.03.2027 -
Mario Dorgeles Braga Ativo 137 / 135 40% 4 17.03.2027 -
Majid Jahanbakhsh Rah Ahan Ativo 123 / 132 40% 5 17.03.2027 -
Mateo Pellegrino Fiorentina Ativo 138 / 138 40% 1 15.03.2027 -
William Gomes Porto Ativo 137 / 151 40% 8 13.03.2027 -
Roberto Fernández Braga Ativo 147 / 134 40% 17 12.03.2027 -
Nicolò Cambiaghi Bologna Ativo 147 / 141 40% 1 12.03.2027 -
Yunus Akgün Galatasaray Ativo 145 / 143 40% 1 12.03.2027 -
Rafik Guitane Estoril Praia Ativo 139 / 136 40% 8 10.03.2027 -
Yanis Begraoui Estoril Praia Ativo 139 / 132 40% 16 08.03.2027 -
Victor Froholdt Porto Ativo 145 / 148 40% 6 08.03.2027 -
Ollie Watkins Al-Hilal Ativo 154 / 150 40% 2 08.03.2027 -
Enrico Delprato Parma Ativo 145 / 137 40% 1 08.03.2027 -
Noah Okafor Leeds United Ativo 143 / 135 40% 3 04.03.2027 -
Santi García Gil Vicente Ativo 133 / 130 40% 1 04.03.2027 -
Pau Víctor Braga Ativo 137 / 139 40% 11 27.02.2027 -
Samu Vitoria Guimaraes Ativo 126 / 125 40% 4 22.02.2027 -
Ismael Díaz Leon Ativo 135 / 123 40% 4 22.02.2027 -
Luís Esteves Atlas Ativo 131 / 135 40% 1 22.02.2027 -
Brian Brobbey Sunderland Ativo 147 / 145 40% 1 22.02.2027 -
Alan Varela Porto Ativo 144 / 151 40% 9 19.02.2027 -
Iván Fresneda Sporting CP Ativo 139 / 135 40% 10 18.02.2027 -
Steven Bergwijn Al-Ittihad Ativo 150 / 150 40% 1 18.02.2027 -
Fredrik Aursnes Benfica Ativo 153 / 154 40% 1 14.02.2027 -
Enzo Barrenechea Benfica Ativo 151 / 146 40% 8 12.02.2027 -
Jordan Holsgrove Estoril Praia Ativo 127 / 133 40% 1 09.02.2027 -
Dwight McNeil Crystal Palace Ativo 144 / 139 40% 1 02.02.2027 -
Samuel Lino Flamengo Ativo 145 / 136 40% 9 31.01.2027 -
Patrick Sequeira Casa Pia Ativo 124 / 122 40% 2 28.01.2027 -
Joan Femenías Penafiel Ativo 120 / 112 40% 1 28.01.2027 -
João Gonçalves Oliveirense Ativo 120 / 120 40% 1 28.01.2027 -
Erick Pulga Bahia Ativo 132 / 129 40% 1 27.01.2027 -
Brais Méndez RC Lens Ativo 147 / 142 40% 3 25.01.2027 -
Dodi Lukébakio Benfica Ativo 143 / 143 40% 9 24.01.2027 -
Carlos Álvarez Club America Ativo 136 / 140 40% 8 23.01.2027 -
James Garner Everton Ativo 148 / 152 40% 1 20.01.2027 -
Victor Sá São Paulo Ativo 123 / 123 40% 2 17.01.2027 -
João Palhinha Benfica Ativo 149 / 148 40% 8 16.01.2027 -
Leandro Barreiro Benfica Ativo 147 / 141 40% 12 14.01.2027 -
Dara O'Shea Ipswich Town Ativo 140 / 140 40% 1 11.01.2027 -
Anel Ahmedhodžić Burnley Ativo 130 / 130 40% 1 11.01.2027 -
Memphis Depay Corinthians Ativo 146 / 143 40% 6 08.01.2027 -
Amine Adli Bournemouth Ativo 143 / 145 40% 2 08.01.2027 -
Callum Hudson-Odoi Nottingham Forest Ativo 152 / 142 40% 1 02.01.2027 -
Tyrhys Dolan Espanyol Ativo 145 / 131 40% 2 31.12.2026 -
Esteban Lepaul Stade Rennais Ativo 139 / 139 40% 2 31.12.2026 -
Nehuén Pérez Porto Ativo 140 / 147 40% 1 31.12.2026 -
Kevin Álvarez Club America Ativo 134 / 131 40% 1 31.12.2026 -
Roméo Lavia Chelsea Ativo 139 / 147 40% 2 29.12.2026 -
Marcel Ruiz Crystal Palace Ativo 137 / 146 40% 1 29.12.2026 -
Crysencio Summerville Al-Hilal Ativo 140 / 133 40% 1 29.12.2026 -
Eduardo Quaresma Sporting CP Ativo 142 / 138 40% 1 29.12.2026 -
Sofiane Diop OGC Nice Ativo 142 / 148 40% 1 20.12.2026 -
Keane Lewis-Potter Brentford Ativo 140 / 150 40% 2 19.12.2026 -
Jens Petter Hauge Bodo/Glimt Ativo 138 / 133 40% 1 14.12.2026 -
Sergi Cardona KAA Gent Ativo 153 / 138 40% 1 13.12.2026 -
Andreas Schjelderup Benfica Ativo 139 / 139 40% 1 11.12.2026 -
Mamadou Sangaré Brentford Ativo 146 / 138 40% 2 09.12.2026 -
Matheus Bidu Corinthians Ativo 134 / 122 40% 1 03.12.2026 -
Gianluca Prestianni Benfica Ativo 131 / 142 40% 1 30.11.2026 -
Claudio Spinelli Vasco da Gama Ativo 130 / 126 40% 1 26.11.2026 -
Agustín Palavecino Cruz Azul Ativo 144 / 138 40% 4 24.11.2026 -
Sadio Mané Al-Nassr Ativo 150 / 138 40% 1 19.11.2026 -
Gustavo Silva Vitoria Guimaraes Ativo 118 / 128 40% 1 08.11.2026 -
Juninho Pumas UNAM Ativo 135 / 121 40% 1 04.11.2026 -
Víctor Gómez Braga Ativo 143 / 139 40% 2 01.11.2026 -
Samuel Dahl Benfica Ativo 140 / 134 40% 3 29.10.2026 -
Carlos Rodríguez Cruz Azul Ativo 142 / 140 40% 2 29.10.2026 -
Heorhii Sudakov Benfica Ativo 144 / 140 40% 2 24.10.2026 -
Ramón Juárez Club America Ativo 140 / 141 40% 1 23.10.2026 -
Bongani Khune SuperSport United Ativo 122 / 132 40% 2 17.10.2026 -
Luis Suárez Sporting CP Ativo 149 / 153 40% 3 14.10.2026 -
João Carvalho Estoril Praia Ativo 125 / 132 40% 2 11.10.2026 -
Fran Navarro Braga Ativo 122 / 127 40% 4 08.10.2026 -
Juan Muñoz Leiria Ativo 121 / 121 40% 2 08.10.2026 -
Arthur Cabral Botafogo Ativo 126 / 124 40% 3 07.10.2026 -
Neymar Santos Ativo 148 / 150 40% 1 07.10.2026 -
Alejandro Piedrahita Deportivo Pereira Ativo 124 / 125 40% 2 06.10.2026 -
Alexey Miranchuk Atlanta United FC Ativo 137 / 141 40% 2 28.09.2026 -
Henrique Araújo Casa Pia Ativo 119 / 124 40% 1 25.09.2026 -
José Manuel López Palmeiras Ativo 132 / 133 40% 1 22.09.2026 -
Sergi Altimira Sporting CP Ativo 142 / 138 40% 1 18.09.2026 -
Heung-Min Son Los Angeles Football Club Ativo 159 / 157 40% 2 12.09.2026 -
Héctor Hernández Gil Vicente Ativo 120 / 120 40% 2 12.09.2026 -
Alfonso Trezza Arouca Ativo 127 / 121 40% 1 12.09.2026 -
Mohammed Bouldini Académico de Viseu Ativo 116 / 120 40% 2 10.09.2026 -
Andreas Pereira Palmeiras Ativo 139 / 136 40% 1 10.09.2026 -
Dawda Camara Alverca Ativo 119 / 117 40% 1 10.09.2026 -
Francisco Moura Porto Ativo 140 / 138 40% 1 08.09.2026 -
Alexis Vega Feyenoord Ativo 137 / 146 40% 1 04.09.2026 -
Petar Musa FC Dallas Ativo 135 / 134 40% 2 02.09.2026 -
Nélson Oliveira Vitoria Guimaraes Ativo 119 / 120 40% 1 28.08.2026 -
André Clovis Académico de Viseu Ativo 113 / 125 40% 2 27.08.2026 -
Rafa Benfica Ativo 138 / 140 40% 2 27.08.2026 -
Vinícius Lopes Santa Clara Ativo 116 / 127 40% 2 26.08.2026 -
Giorgos Koutsias Famalicao Ativo 111 / 121 40% 1 16.08.2026 -
Figueiredo Alverca Ativo 133 / 130 40% 1 11.08.2026 -
Álvaro Valles Betis Ativo 140 / 136 40% 1 07.08.2026 -
Unai Simón Athletic Bilbao Ativo 156 / 161 40% 1 07.08.2026 -
Antonio Sivera Alavés Ativo 137 / 138 40% 1 05.08.2026 -
Lazar Carević Famalicao Ativo 121 / 128 40% 1 05.08.2026 -
Ignacio de Arruabarrena Arouca Ativo 125 / 124 40% 1 03.08.2026 -